Time;durP1;ratioP1;P1;durP2;ratioP2;P2;SDS_P1;SDS_P2;PMS_P1;PMS_P2;Temp;Humidity;BMP_temperature;BMP_pressure;BME280_temperature;BME280_humidity;BME280_pressure;Samples;Min_cycle;Max_cycle;Signal;HPM_P1;HPM_P2
2023/07/24 00:02:20;;;;;;;0.00;0.00;;;;;;;20.80;48.34;96788.31;5116944;28;20050;-73
2023/07/24 00:04:48;;;;;;;0.00;0.00;;;;;;;20.73;48.47;96792.44;5116330;28;20465;-72
2023/07/24 00:07:15;;;;;;;0.00;0.00;;;;;;;20.70;48.61;96785.66;5115139;27;20059;-73
2023/07/24 00:09:43;;;;;;;0.00;0.00;;;;;;;20.72;48.85;96786.19;5109964;28;20051;-74
2023/07/24 00:12:11;;;;;;;0.10;0.10;;;;;;;20.68;48.63;96784.31;5114517;28;20126;-73
2023/07/24 00:14:38;;;;;;;0.00;0.00;;;;;;;20.66;48.74;96776.44;5113760;28;20047;-72
2023/07/24 00:17:06;;;;;;;0.10;0.10;;;;;;;20.65;48.80;96772.13;5114634;28;20058;-72
2023/07/24 00:19:35;;;;;;;0.00;0.00;;;;;;;20.61;49.01;96779.19;5107826;27;20046;-71
2023/07/24 00:22:03;;;;;;;0.00;0.00;;;;;;;20.57;48.90;96772.69;5111895;28;20035;-71
2023/07/24 00:24:32;;;;;;;0.00;0.00;;;;;;;20.55;49.08;96774.91;5109781;28;20496;-72
2023/07/24 00:27:01;;;;;;;0.03;0.03;;;;;;;20.55;49.11;96766.75;5114077;28;20043;-73
2023/07/24 00:29:29;;;;;;;0.00;0.00;;;;;;;20.51;49.13;96774.63;5106883;28;20122;-73
2023/07/24 00:31:56;;;;;;;0.03;0.03;;;;;;;20.51;49.11;96765.69;5113845;28;20127;-72
2023/07/24 00:34:24;;;;;;;0.00;0.00;;;;;;;20.49;49.14;96762.44;5114321;28;20484;-73
2023/07/24 00:36:57;;;;;;;0.10;0.10;;;;;;;20.50;49.30;96755.94;5111142;27;20050;-72
2023/07/24 00:39:28;;;;;;;0.10;0.10;;;;;;;20.45;49.40;96754.03;5111791;28;20036;-72
2023/07/24 00:41:57;;;;;;;0.00;0.00;;;;;;;20.46;49.41;96755.66;5109931;28;20063;-71
2023/07/24 00:44:24;;;;;;;0.00;0.00;;;;;;;20.44;49.52;96747.03;5112329;28;20046;-71
2023/07/24 00:46:54;;;;;;;0.00;0.00;;;;;;;20.41;49.22;96746.75;5112234;28;20044;-71
2023/07/24 00:49:22;;;;;;;0.10;0.10;;;;;;;20.42;49.48;96748.38;5112470;28;20088;-71
2023/07/24 00:51:50;;;;;;;0.00;0.00;;;;;;;20.37;49.39;96751.09;5112289;28;20050;-71
2023/07/24 00:54:19;;;;;;;0.10;0.10;;;;;;;20.34;49.56;96754.34;5112393;28;20049;-71
2023/07/24 00:56:47;;;;;;;0.10;0.10;;;;;;;20.33;49.78;96742.69;5112319;28;20104;-73
2023/07/24 00:59:15;;;;;;;0.03;0.03;;;;;;;20.32;49.74;96749.19;5106753;28;20053;-72
2023/07/24 01:01:43;;;;;;;0.10;0.10;;;;;;;20.28;49.82;96753.53;5111980;28;20040;-73
2023/07/24 01:04:12;;;;;;;0.10;0.10;;;;;;;20.27;49.80;96764.66;5113886;28;20118;-73
2023/07/24 01:06:40;;;;;;;0.00;0.00;;;;;;;20.22;50.08;96764.69;5109863;28;20634;-72
2023/07/24 01:09:08;;;;;;;0.10;0.10;;;;;;;20.18;49.99;96764.41;5109741;28;20046;-71
2023/07/24 01:11:40;;;;;;;0.10;0.10;;;;;;;20.18;49.94;96764.41;5111208;28;20497;-71
2023/07/24 01:14:11;;;;;;;0.20;0.20;;;;;;;20.17;50.21;96768.22;5112915;28;20911;-70
2023/07/24 01:16:41;;;;;;;0.00;0.00;;;;;;;20.14;49.92;96774.22;5102929;28;20137;-71
2023/07/24 01:19:13;;;;;;;0.10;0.10;;;;;;;20.16;49.84;96770.13;5109929;28;20031;-71
2023/07/24 01:21:53;;;;;;;0.00;0.00;;;;;;;20.16;49.74;96767.41;5102601;28;20043;-71
2023/07/24 01:24:25;;;;;;;0.10;0.10;;;;;;;20.14;49.91;96763.38;5107173;28;20032;-72
2023/07/24 01:26:54;;;;;;;0.10;0.10;;;;;;;20.12;50.12;96766.34;5111640;28;20051;-72
2023/07/24 01:29:22;;;;;;;0.10;0.10;;;;;;;20.14;49.65;96763.38;5112799;28;20028;-73
2023/07/24 01:31:49;;;;;;;0.05;0.05;;;;;;;20.15;49.70;96760.34;5111025;28;20061;-74
2023/07/24 01:34:17;;;;;;;0.00;0.00;;;;;;;20.17;49.61;96752.78;5111187;28;20078;-74
2023/07/24 01:36:46;;;;;;;0.10;0.10;;;;;;;20.15;49.62;96765.78;5112887;28;20031;-74
2023/07/24 01:39:15;;;;;;;0.13;0.13;;;;;;;20.11;49.55;96759.31;5110404;27;20472;-74
2023/07/24 01:41:43;;;;;;;0.00;0.00;;;;;;;20.12;49.60;96766.34;5112237;28;20042;-74
2023/07/24 01:44:12;;;;;;;0.00;0.00;;;;;;;20.14;49.64;96755.25;5112396;28;20039;-74
2023/07/24 01:46:40;;;;;;;0.00;0.00;;;;;;;20.10;49.81;96757.69;5111125;28;20050;-74
2023/07/24 01:49:07;;;;;;;0.10;0.10;;;;;;;20.09;49.60;96749.81;5111148;28;20043;-73
2023/07/24 01:51:35;;;;;;;0.00;0.00;;;;;;;20.10;49.65;96746.84;5111452;28;20047;-71
2023/07/24 01:54:03;;;;;;;0.10;0.10;;;;;;;20.11;49.58;96744.94;5109789;28;20055;-72
2023/07/24 01:56:31;;;;;;;0.10;0.10;;;;;;;20.17;49.53;96741.13;5108061;28;20044;-73
2023/07/24 01:58:59;;;;;;;0.10;0.10;;;;;;;20.12;49.71;96733.84;5105571;28;20070;-71
2023/07/24 02:01:28;;;;;;;0.00;0.00;;;;;;;20.15;49.30;96732.44;5111078;28;20549;-71
2023/07/24 02:03:56;;;;;;;0.00;0.00;;;;;;;20.12;49.31;96727.59;5109373;28;20044;-71
2023/07/24 02:06:24;;;;;;;0.00;0.00;;;;;;;20.14;49.38;96709.19;5106148;27;20075;-70
2023/07/24 02:08:51;;;;;;;0.10;0.10;;;;;;;20.15;49.30;96711.59;5114743;28;20488;-70
2023/07/24 02:11:19;;;;;;;0.00;0.00;;;;;;;20.16;49.26;96721.34;5110879;28;20044;-70
2023/07/24 02:13:48;;;;;;;0.00;0.00;;;;;;;20.15;49.08;96710.78;5110594;28;20039;-70
2023/07/24 02:16:15;;;;;;;0.00;0.00;;;;;;;20.20;49.04;96712.66;5112385;28;20036;-74
2023/07/24 02:18:45;;;;;;;0.00;0.00;;;;;;;20.19;49.08;96706.44;5108123;28;20052;-73
2023/07/24 02:21:12;;;;;;;0.10;0.10;;;;;;;20.21;49.27;96703.44;5104844;28;20403;-73
2023/07/24 02:23:40;;;;;;;0.10;0.10;;;;;;;20.28;48.86;96717.50;5111204;28;20140;-74
2023/07/24 02:26:08;;;;;;;0.05;0.05;;;;;;;20.22;48.99;96719.44;5109486;28;20053;-74
2023/07/24 02:28:35;;;;;;;0.10;0.10;;;;;;;20.23;48.91;96712.13;5109185;28;20067;-73
2023/07/24 02:31:03;;;;;;;0.00;0.00;;;;;;;20.24;48.77;96700.19;5110047;28;20403;-73
2023/07/24 02:33:31;;;;;;;0.10;0.10;;;;;;;20.30;48.63;96696.34;5110428;28;20104;-73
2023/07/24 02:36:01;;;;;;;0.00;0.00;;;;;;;20.36;48.66;96696.06;5111886;28;20050;-73
2023/07/24 02:38:29;;;;;;;0.10;0.10;;;;;;;20.34;48.45;96697.44;5110061;27;20043;-73
2023/07/24 02:40:56;;;;;;;0.10;0.10;;;;;;;20.29;48.73;96695.53;5110221;28;20411;-73
2023/07/24 02:43:24;;;;;;;0.00;0.00;;;;;;;20.29;48.67;96695.53;5110080;28;20130;-73
2023/07/24 02:45:52;;;;;;;0.10;0.10;;;;;;;20.29;48.50;96697.44;5108822;28;20051;-73
2023/07/24 02:48:19;;;;;;;0.10;0.10;;;;;;;20.27;48.55;96702.31;5109477;28;20081;-71
2023/07/24 02:50:48;;;;;;;0.00;0.00;;;;;;;20.30;48.73;96709.91;5111150;28;20457;-72
2023/07/24 02:53:17;;;;;;;0.10;0.10;;;;;;;20.28;48.76;96710.19;5111681;28;20040;-72
2023/07/24 02:55:45;;;;;;;0.10;0.10;;;;;;;20.30;48.92;96705.28;5110224;28;20116;-72
2023/07/24 02:58:13;;;;;;;0.10;0.10;;;;;;;20.31;48.78;96703.41;5101591;28;20485;-72
2023/07/24 03:00:41;;;;;;;0.10;0.10;;;;;;;20.31;48.60;96704.22;5108450;28;20047;-72
2023/07/24 03:03:09;;;;;;;0.10;0.10;;;;;;;20.26;48.79;96700.69;5109714;28;20036;-72
2023/07/24 03:05:37;;;;;;;0.10;0.10;;;;;;;20.24;48.87;96692.06;5107410;27;20043;-71
2023/07/24 03:08:05;;;;;;;0.10;0.10;;;;;;;20.21;48.85;96684.47;5115997;28;20454;-73
2023/07/24 03:10:34;;;;;;;0.00;0.00;;;;;;;20.22;48.68;96680.69;5114221;28;20039;-73
2023/07/24 03:13:01;;;;;;;0.00;0.00;;;;;;;20.22;48.80;96677.97;5118619;28;20082;-73
2023/07/24 03:15:29;;;;;;;0.08;0.08;;;;;;;20.24;48.53;96668.47;5124003;28;20044;-73
2023/07/24 03:17:57;;;;;;;0.10;0.10;;;;;;;20.27;48.47;96661.66;5122371;28;20524;-73
2023/07/24 03:20:25;;;;;;;0.10;0.10;;;;;;;20.23;48.62;96664.16;5122642;28;20132;-72
2023/07/24 03:22:52;;;;;;;0.10;0.10;;;;;;;20.21;48.58;96660.09;5113265;28;20455;-72
2023/07/24 03:25:20;;;;;;;0.10;0.10;;;;;;;20.20;48.75;96663.88;5114808;28;20054;-73
2023/07/24 03:27:49;;;;;;;0.10;0.10;;;;;;;20.20;48.72;96658.47;5116867;28;20465;-73
2023/07/24 03:30:17;;;;;;;0.10;0.10;;;;;;;20.20;48.92;96658.47;5115785;28;20061;-72
2023/07/24 03:32:44;;;;;;;0.00;0.00;;;;;;;20.15;48.68;96657.38;5111760;27;20048;-72
2023/07/24 03:35:12;;;;;;;0.10;0.10;;;;;;;20.12;49.18;96663.38;5103515;28;20075;-72
2023/07/24 03:37:40;;;;;;;0.10;0.10;;;;;;;20.15;49.09;96665.50;5097929;27;20462;-72
2023/07/24 03:40:09;;;;;;;0.10;0.10;;;;;;;20.18;49.33;96666.88;5110144;28;20042;-72
2023/07/24 03:42:36;;;;;;;0.10;0.10;;;;;;;20.06;49.88;96664.47;5106822;28;20052;-71
2023/07/24 03:45:08;;;;;;;0.08;0.08;;;;;;;19.98;50.01;96656.94;5105534;28;20036;-71
2023/07/24 03:47:35;;;;;;;0.10;0.10;;;;;;;19.88;50.31;96656.16;5099444;28;20051;-71
2023/07/24 03:50:03;;;;;;;0.10;0.10;;;;;;;19.92;50.31;96651.81;5107647;28;20070;-71
2023/07/24 03:52:31;;;;;;;0.10;0.10;;;;;;;19.83;50.49;96648.84;5103103;28;20504;-71
2023/07/24 03:54:58;;;;;;;0.10;0.10;;;;;;;19.80;50.46;96652.13;5109243;28;20040;-71
2023/07/24 03:57:26;;;;;;;0.10;0.10;;;;;;;19.76;50.74;96661.88;5107620;28;20039;-71
2023/07/24 03:59:54;;;;;;;0.10;0.10;;;;;;;19.74;50.81;96659.44;5108886;28;20047;-71
2023/07/24 04:02:24;;;;;;;0.10;0.10;;;;;;;19.73;50.84;96649.69;5110030;28;20054;-71
2023/07/24 04:04:51;;;;;;;0.00;0.00;;;;;;;19.70;50.74;96655.69;5111224;27;20058;-70
2023/07/24 04:07:19;;;;;;;0.10;0.10;;;;;;;19.72;50.82;96647.28;5096991;28;20077;-71
2023/07/24 04:09:47;;;;;;;0.10;0.10;;;;;;;19.68;50.87;96648.94;5104009;28;20126;-71
2023/07/24 04:12:14;;;;;;;0.00;0.00;;;;;;;19.60;51.06;96658.44;5103830;28;20102;-71
2023/07/24 04:14:42;;;;;;;0.05;0.05;;;;;;;19.60;51.15;96661.13;5103412;28;20091;-71
2023/07/24 04:17:10;;;;;;;0.10;0.10;;;;;;;19.56;51.14;96653.81;5099173;28;20130;-71
2023/07/24 04:19:39;;;;;;;0.10;0.10;;;;;;;19.57;51.19;96658.16;5106813;28;20047;-71
2023/07/24 04:22:06;;;;;;;0.00;0.00;;;;;;;19.52;51.47;96658.19;5111232;28;20074;-71
2023/07/24 04:24:35;;;;;;;0.00;0.00;;;;;;;19.51;51.54;96654.66;5102414;28;20043;-71
2023/07/24 04:27:03;;;;;;;0.08;0.08;;;;;;;19.52;51.33;96650.06;5105085;28;20036;-71
2023/07/24 04:29:30;;;;;;;0.10;0.10;;;;;;;19.57;51.08;96658.97;5101348;28;20067;-71
2023/07/24 04:31:58;;;;;;;0.10;0.10;;;;;;;19.47;51.62;96658.97;5104734;28;20052;-72
2023/07/24 04:34:26;;;;;;;0.00;0.00;;;;;;;19.45;51.57;96653.00;5111154;28;20035;-71
2023/07/24 04:36:55;;;;;;;0.32;0.32;;;;;;;19.41;51.68;96668.19;5105349;28;20399;-71
2023/07/24 04:39:22;;;;;;;0.00;0.00;;;;;;;19.42;51.89;96664.38;5109959;27;20048;-71
2023/07/24 04:41:50;;;;;;;0.03;0.03;;;;;;;19.46;51.85;96660.03;5099234;28;20060;-71
2023/07/24 04:44:18;;;;;;;0.10;0.10;;;;;;;19.53;51.79;96654.38;5108824;28;20028;-72
2023/07/24 04:46:45;;;;;;;0.10;0.10;;;;;;;19.47;51.76;96658.16;5100127;28;20044;-71
2023/07/24 04:49:13;;;;;;;0.10;0.10;;;;;;;19.44;52.08;96657.59;5107566;28;20044;-72
2023/07/24 04:51:41;;;;;;;0.13;0.13;;;;;;;19.42;52.14;96661.66;5103922;28;20040;-71
2023/07/24 04:54:09;;;;;;;0.00;0.00;;;;;;;19.42;52.36;96662.47;5108050;28;20035;-71
2023/07/24 04:56:37;;;;;;;0.08;0.08;;;;;;;19.47;52.26;96648.13;5107091;27;20035;-72
2023/07/24 04:59:05;;;;;;;0.10;0.10;;;;;;;19.47;52.40;96653.56;5105069;28;20062;-71
2023/07/24 05:01:32;;;;;;;0.00;0.00;;;;;;;19.49;52.43;96658.72;5110757;28;20043;-70
2023/07/24 05:04:00;;;;;;;0.20;0.20;;;;;;;19.52;52.55;96658.19;5111758;28;20403;-71
2023/07/24 05:06:28;;;;;;;0.10;0.10;;;;;;;19.61;52.58;96661.94;5105248;28;20270;-71
2023/07/24 05:08:56;;;;;;;0.00;0.00;;;;;;;19.62;53.16;96656.22;5105728;28;20370;-71
2023/07/24 05:11:25;;;;;;;0.10;0.10;;;;;;;19.67;53.00;96650.00;5111719;28;20046;-71
2023/07/24 05:13:52;;;;;;;0.10;0.10;;;;;;;19.66;53.49;96651.09;5112034;28;20050;-71
2023/07/24 05:16:20;;;;;;;0.30;0.30;;;;;;;19.62;53.95;96645.41;5110258;28;20406;-71
2023/07/24 05:18:48;;;;;;;0.10;0.10;;;;;;;19.60;53.86;96639.47;5107169;28;20044;-71
2023/07/24 05:21:15;;;;;;;0.10;0.10;;;;;;;19.59;54.55;96647.88;5112878;28;20104;-72
2023/07/24 05:23:43;;;;;;;0.10;0.10;;;;;;;19.55;54.71;96646.78;5108695;28;20039;-71
2023/07/24 05:26:11;;;;;;;0.10;0.10;;;;;;;19.65;54.82;96647.56;5112633;28;20043;-71
2023/07/24 05:28:40;;;;;;;0.10;0.10;;;;;;;19.63;55.42;96643.50;5107212;28;20048;-72
2023/07/24 05:31:07;;;;;;;0.00;0.00;;;;;;;19.60;55.91;96646.78;5111927;28;20031;-71
2023/07/24 05:33:35;;;;;;;0.10;0.10;;;;;;;19.61;56.62;96645.72;5112092;28;20063;-72
2023/07/24 05:36:04;;;;;;;0.03;0.03;;;;;;;19.68;56.69;96646.22;5112820;28;20054;-71
2023/07/24 05:38:32;;;;;;;0.00;0.00;;;;;;;19.74;57.34;96635.06;5111348;28;20081;-71
2023/07/24 05:41:01;;;;;;;0.10;0.10;;;;;;;19.73;58.14;96638.88;5112671;28;20399;-72
2023/07/24 05:43:29;;;;;;;0.10;0.10;;;;;;;19.76;58.26;96648.34;5112367;28;20650;-72
2023/07/24 05:45:59;;;;;;;0.10;0.10;;;;;;;19.80;58.47;96638.59;5112843;28;20066;-72
2023/07/24 05:48:26;;;;;;;0.08;0.08;;;;;;;19.80;59.14;96638.59;5112544;28;20411;-72
2023/07/24 05:50:54;;;;;;;0.08;0.08;;;;;;;19.91;58.97;96633.94;5112749;28;20040;-72
2023/07/24 05:53:22;;;;;;;0.00;0.00;;;;;;;19.98;58.97;96632.53;5111320;28;20149;-72
2023/07/24 05:55:57;;;;;;;0.10;0.10;;;;;;;20.07;59.07;96632.78;5112696;28;20134;-72
2023/07/24 05:58:25;;;;;;;0.10;0.10;;;;;;;20.17;59.19;96638.94;5112241;28;20046;-72
2023/07/24 06:00:52;;;;;;;0.10;0.10;;;;;;;20.29;59.04;96640.53;5108864;28;20044;-72
2023/07/24 06:03:21;;;;;;;0.10;0.10;;;;;;;20.30;59.33;96620.47;5112357;28;20484;-71
2023/07/24 06:05:51;;;;;;;0.10;0.10;;;;;;;20.30;59.44;96609.63;5112140;28;20122;-72
2023/07/24 06:08:19;;;;;;;0.10;0.10;;;;;;;20.40;59.03;96607.69;5106652;28;20040;-72
2023/07/24 06:10:48;;;;;;;0.00;0.00;;;;;;;20.49;58.65;96594.31;5095577;28;20407;-71
2023/07/24 06:13:16;;;;;;;0.00;0.00;;;;;;;20.60;58.58;96587.75;5110799;28;20220;-72
2023/07/24 06:15:43;;;;;;;0.05;0.05;;;;;;;20.67;58.46;96581.97;5112067;28;20054;-72
2023/07/24 06:18:11;;;;;;;0.00;0.00;;;;;;;20.68;58.29;96578.19;5103552;28;20045;-72
2023/07/24 06:20:40;;;;;;;0.10;0.10;;;;;;;20.75;58.31;96568.63;5112059;28;20042;-72
2023/07/24 06:23:08;;;;;;;0.10;0.10;;;;;;;20.80;57.66;96574.00;5111660;28;20057;-72
2023/07/24 06:25:35;;;;;;;0.10;0.10;;;;;;;20.86;57.57;96577.50;5112370;28;20100;-72
2023/07/24 06:28:03;;;;;;;0.10;0.10;;;;;;;20.99;57.35;96579.53;5111723;28;20118;-72
2023/07/24 06:30:31;;;;;;;0.00;0.00;;;;;;;21.14;56.73;96584.00;5111792;28;20031;-72
2023/07/24 06:32:59;;;;;;;0.00;0.00;;;;;;;21.25;55.93;96588.28;5112054;28;20050;-72
2023/07/24 06:35:26;;;;;;;0.05;0.05;;;;;;;21.30;55.85;96593.63;5112122;28;20040;-72
2023/07/24 06:37:55;;;;;;;0.00;0.00;;;;;;;21.30;55.37;96593.63;5111884;28;20039;-72
2023/07/24 06:40:23;;;;;;;0.00;0.00;;;;;;;21.38;54.78;96584.88;5111891;28;20061;-72
2023/07/24 06:42:50;;;;;;;0.00;0.00;;;;;;;21.52;53.61;96576.81;5110316;28;20051;-71
2023/07/24 06:45:18;;;;;;;0.00;0.00;;;;;;;21.67;52.38;96578.56;5096332;28;20044;-72
2023/07/24 06:47:46;;;;;;;0.05;0.05;;;;;;;21.78;52.17;96589.03;5102695;28;20040;-72
2023/07/24 06:50:14;;;;;;;0.00;0.00;;;;;;;21.88;52.06;96588.06;5112376;28;20093;-71
2023/07/24 06:52:41;;;;;;;0.00;0.00;;;;;;;22.01;52.10;96578.44;5111458;28;20043;-72
2023/07/24 06:55:10;;;;;;;0.00;0.00;;;;;;;22.19;51.51;96586.59;5115880;28;20069;-72
2023/07/24 06:57:38;;;;;;;0.00;0.00;;;;;;;22.25;50.52;96571.81;5112644;28;20536;-72
2023/07/24 07:00:08;;;;;;;0.00;0.00;;;;;;;22.13;50.94;96571.44;5111531;28;20055;-72
2023/07/24 07:02:37;;;;;;;0.00;0.00;;;;;;;22.01;52.12;96573.00;5107749;28;20039;-71
2023/07/24 07:05:05;;;;;;;0.10;0.10;;;;;;;21.99;52.14;96570.56;5111568;28;20104;-72
2023/07/24 07:07:33;;;;;;;0.00;0.00;;;;;;;22.02;52.27;96571.88;5111450;28;20063;-71
2023/07/24 07:10:01;;;;;;;0.00;0.00;;;;;;;22.05;52.45;96572.09;5111254;28;20101;-72
2023/07/24 07:12:30;;;;;;;0.00;0.00;;;;;;;22.18;52.32;96565.94;5111186;28;20111;-72
2023/07/24 07:14:58;;;;;;;0.10;0.10;;;;;;;22.22;52.50;96582.47;5111449;28;20040;-72
2023/07/24 07:17:26;;;;;;;0.10;0.10;;;;;;;22.28;52.58;96563.06;5111643;28;20043;-72
2023/07/24 07:19:56;;;;;;;0.00;0.00;;;;;;;22.46;52.79;96561.44;5111043;28;20051;-72
2023/07/24 07:22:24;;;;;;;0.00;0.00;;;;;;;22.51;53.14;96550.50;5111712;28;20032;-72
2023/07/24 07:24:51;;;;;;;0.00;0.00;;;;;;;22.68;53.10;96552.66;5109553;28;20048;-72
2023/07/24 07:27:19;;;;;;;0.00;0.00;;;;;;;22.77;52.68;96558.25;5111481;28;20039;-72
2023/07/24 07:29:48;;;;;;;0.05;0.05;;;;;;;22.75;52.76;96557.69;5110963;28;20036;-72
2023/07/24 07:32:16;;;;;;;0.10;0.10;;;;;;;22.66;52.96;96568.47;5111614;28;20149;-72
2023/07/24 07:34:44;;;;;;;0.10;0.10;;;;;;;22.68;53.58;96569.78;5111330;28;20067;-71
2023/07/24 07:37:11;;;;;;;0.00;0.00;;;;;;;22.81;52.94;96560.09;5104479;28;20040;-72
2023/07/24 07:39:39;;;;;;;0.10;0.10;;;;;;;22.93;52.93;96560.44;5111368;28;20496;-73
2023/07/24 07:42:07;;;;;;;0.10;0.10;;;;;;;22.92;53.02;96555.28;5110628;28;20043;-72
2023/07/24 07:44:44;;;;;;;0.10;0.10;;;;;;;22.94;52.43;96543.00;5118258;28;20039;-72
2023/07/24 07:47:13;;;;;;;0.00;0.00;;;;;;;22.98;52.48;96530.38;5109063;28;20074;-72
2023/07/24 07:49:41;;;;;;;0.00;0.00;;;;;;;23.19;51.74;96535.44;5110747;28;20641;-72
2023/07/24 07:52:09;;;;;;;0.00;0.00;;;;;;;23.34;51.33;96521.53;5112810;28;20080;-73
2023/07/24 07:54:37;;;;;;;0.00;0.00;;;;;;;23.54;50.73;96518.44;5115026;28;20557;-73
2023/07/24 07:57:05;;;;;;;0.10;0.10;;;;;;;23.73;50.27;96521.84;5115001;28;20047;-72
2023/07/24 07:59:33;;;;;;;0.00;0.00;;;;;;;23.90;48.99;96514.94;5114479;28;20511;-71
2023/07/24 08:02:01;;;;;;;0.00;0.00;;;;;;;23.96;48.25;96524.63;5111450;28;20067;-70
2023/07/24 08:04:30;;;;;;;0.00;0.00;;;;;;;23.98;48.31;96516.97;5114810;28;20040;-70
2023/07/24 08:06:57;;;;;;;0.03;0.03;;;;;;;24.05;48.19;96501.78;5114763;28;20062;-71
2023/07/24 08:09:25;;;;;;;0.00;0.00;;;;;;;24.14;47.97;96510.03;5114262;28;20112;-70
2023/07/24 08:11:53;;;;;;;0.00;0.00;;;;;;;24.21;48.03;96501.41;5114464;28;20040;-70
2023/07/24 08:14:21;;;;;;;0.00;0.00;;;;;;;24.35;47.83;96491.28;5114590;28;20071;-70
2023/07/24 08:16:49;;;;;;;0.00;0.00;;;;;;;24.41;47.50;96498.22;5110459;28;20040;-70
2023/07/24 08:19:17;;;;;;;0.05;0.05;;;;;;;24.53;47.17;96506.66;5114164;28;20039;-70
2023/07/24 08:21:47;;;;;;;0.00;0.00;;;;;;;24.55;46.92;96520.00;5115233;28;20070;-70
2023/07/24 08:24:15;;;;;;;0.00;0.00;;;;;;;24.27;46.69;96519.31;5110798;28;20563;-73
2023/07/24 08:26:42;;;;;;;0.00;0.00;;;;;;;24.12;47.29;96520.44;5113168;28;20096;-72
2023/07/24 08:29:10;;;;;;;0.10;0.10;;;;;;;23.92;46.85;96531.81;5114758;28;20097;-72
2023/07/24 08:31:38;;;;;;;0.10;0.10;;;;;;;23.77;47.29;96536.47;5114042;28;20547;-72
2023/07/24 08:34:05;;;;;;;0.10;0.10;;;;;;;23.62;49.02;96527.81;5114223;28;20100;-72
2023/07/24 08:36:33;;;;;;;0.00;0.00;;;;;;;23.51;50.91;96540.03;5114212;28;20066;-72
2023/07/24 08:39:03;;;;;;;0.10;0.10;;;;;;;23.47;51.79;96538.97;5113891;28;20043;-72
2023/07/24 08:41:34;;;;;;;0.00;0.00;;;;;;;23.30;51.62;96545.84;5113771;28;20042;-72
2023/07/24 08:44:02;;;;;;;0.10;0.10;;;;;;;23.17;51.28;96537.66;5114636;28;20043;-71
2023/07/24 08:46:30;;;;;;;0.00;0.00;;;;;;;23.11;51.34;96531.50;5109631;28;20039;-71
2023/07/24 08:48:58;;;;;;;0.10;0.10;;;;;;;23.14;51.30;96530.09;5115231;28;20092;-71
2023/07/24 08:51:26;;;;;;;0.00;0.00;;;;;;;23.19;50.68;96528.09;5114228;28;20118;-71
2023/07/24 08:53:53;;;;;;;0.03;0.03;;;;;;;23.24;50.25;96508.13;5114666;28;20075;-71
2023/07/24 08:56:22;;;;;;;0.00;0.00;;;;;;;23.26;50.46;96522.22;5114052;28;20419;-74
2023/07/24 08:58:50;;;;;;;0.10;0.10;;;;;;;23.33;49.98;96528.91;5110847;28;20043;-73
2023/07/24 09:01:20;;;;;;;0.10;0.10;;;;;;;23.37;50.19;96529.91;5105631;28;20139;-72
2023/07/24 09:03:48;;;;;;;0.00;0.00;;;;;;;23.43;50.08;96517.81;5112967;28;20043;-73
2023/07/24 09:06:19;;;;;;;0.08;0.08;;;;;;;23.43;49.91;96525.97;5113763;28;20048;-70
2023/07/24 09:08:47;;;;;;;0.00;0.00;;;;;;;23.46;50.01;96524.56;5113516;28;20053;-70
2023/07/24 09:11:15;;;;;;;0.00;0.00;;;;;;;23.47;50.56;96522.63;5114394;28;20465;-71
2023/07/24 09:13:44;;;;;;;0.00;0.00;;;;;;;23.53;50.64;96518.75;5113279;28;20104;-71
2023/07/24 09:16:22;;;;;;;0.25;0.25;;;;;;;23.61;49.85;96512.56;5108505;28;20430;-71
2023/07/24 09:18:51;;;;;;;0.00;0.00;;;;;;;23.60;49.98;96516.41;5113267;28;20063;-73
2023/07/24 09:21:37;;;;;;;0.00;0.00;;;;;;;23.62;50.36;96514.19;5108453;28;20497;-73
2023/07/24 09:24:12;;;;;;;0.00;0.00;;;;;;;23.66;50.42;96518.75;5113220;28;20404;-73
2023/07/24 09:26:50;;;;;;;0.00;0.00;;;;;;;23.64;50.55;96520.16;5108979;28;20044;-71
2023/07/24 09:29:20;;;;;;;0.00;0.00;;;;;;;23.72;50.60;96527.59;5107527;28;20114;-71
2023/07/24 09:31:48;;;;;;;0.00;0.00;;;;;;;23.68;50.60;96524.66;5109509;28;20048;-73
2023/07/24 09:34:17;;;;;;;0.00;0.00;;;;;;;23.66;51.50;96507.03;5106401;28;20063;-71
2023/07/24 09:36:45;;;;;;;0.00;0.00;;;;;;;23.64;51.03;96492.91;5112651;28;20115;-72
2023/07/24 09:39:12;;;;;;;0.00;0.00;;;;;;;23.54;51.68;96495.84;5105984;28;20053;-74
2023/07/24 09:41:40;;;;;;;0.00;0.00;;;;;;;23.55;51.65;96483.84;5107538;28;20059;-73
2023/07/24 09:44:08;;;;;;;0.00;0.00;;;;;;;23.57;51.74;96487.84;5115252;28;20046;-71
2023/07/24 09:46:37;;;;;;;0.00;0.00;;;;;;;23.65;51.41;96483.63;5109349;28;20114;-71
2023/07/24 09:49:14;;;;;;;0.00;0.00;;;;;;;23.81;51.53;96484.88;5112437;28;20048;-71
2023/07/24 09:51:43;;;;;;;0.05;0.05;;;;;;;23.85;51.13;96466.00;5114783;28;20488;-72
2023/07/24 09:54:16;;;;;;;0.10;0.10;;;;;;;24.19;50.38;96473.66;5102444;28;20036;-75
2023/07/24 09:56:44;;;;;;;0.00;0.00;;;;;;;24.45;49.81;96469.22;5114292;28;20711;-71
2023/07/24 09:59:22;;;;;;;0.00;0.00;;;;;;;25.01;49.09;96460.41;5113539;28;20036;-72
2023/07/24 10:01:51;;;;;;;0.00;0.00;;;;;;;25.41;47.49;96454.91;5109824;28;20541;-72
2023/07/24 10:04:19;;;;;;;0.00;0.00;;;;;;;25.72;46.79;96461.13;5113738;28;20046;-71
2023/07/24 10:06:48;;;;;;;0.10;0.10;;;;;;;25.43;47.22;96458.13;5113467;28;20442;-72
2023/07/24 10:09:18;;;;;;;0.00;0.00;;;;;;;25.31;46.85;96457.94;5113502;28;20054;-72
2023/07/24 10:11:46;;;;;;;0.00;0.00;;;;;;;25.48;46.60;96460.72;5116146;28;20100;-71
2023/07/24 10:14:14;;;;;;;0.00;0.00;;;;;;;25.77;46.15;96449.19;5114860;28;20050;-72
2023/07/24 10:16:42;;;;;;;0.00;0.00;;;;;;;26.16;45.51;96446.31;5110234;28;20043;-71
2023/07/24 10:19:15;;;;;;;0.00;0.00;;;;;;;26.21;45.32;96426.19;5113922;28;20047;-74
2023/07/24 10:21:46;;;;;;;0.00;0.00;;;;;;;26.22;45.12;96436.81;5113887;28;20047;-71
2023/07/24 10:24:15;;;;;;;0.00;0.00;;;;;;;26.56;44.01;96427.78;5107310;28;20031;-71
2023/07/24 10:26:58;;;;;;;0.30;0.30;;;;;;;26.28;44.18;96429.25;5112291;28;20507;-72
2023/07/24 10:29:26;;;;;;;0.00;0.00;;;;;;;26.02;45.33;96439.41;5104703;28;20061;-71
2023/07/24 10:31:54;;;;;;;0.00;0.00;;;;;;;25.76;45.71;96447.59;5109462;28;20496;-71
2023/07/24 10:34:23;;;;;;;0.00;0.00;;;;;;;25.51;46.59;96457.34;5111529;28;20385;-72
2023/07/24 10:36:51;;;;;;;0.00;0.00;;;;;;;25.29;46.97;96476.56;5109752;28;20378;-71
2023/07/24 10:39:20;;;;;;;0.00;0.00;;;;;;;25.11;49.93;96489.38;5111992;28;20042;-71
2023/07/24 10:41:48;;;;;;;0.00;0.00;;;;;;;24.59;52.99;96508.16;5111755;28;20056;-73
2023/07/24 10:44:16;;;;;;;0.10;0.10;;;;;;;23.52;62.38;96547.09;5112298;28;20118;-72
2023/07/24 10:46:44;;;;;;;0.00;0.00;;;;;;;21.89;72.00;96481.81;5106480;28;20039;-72
2023/07/24 10:49:12;;;;;;;0.10;0.10;;;;;;;20.96;71.62;96490.56;5112265;28;20039;-72
2023/07/24 10:51:41;;;;;;;0.00;0.00;;;;;;;20.67;71.08;96495.19;5111478;28;20063;-72
2023/07/24 10:54:09;;;;;;;0.10;0.10;;;;;;;20.68;71.41;96497.63;5113333;28;20091;-73
2023/07/24 10:56:37;;;;;;;0.03;0.03;;;;;;;20.79;72.08;96512.72;5114062;28;20047;-73
2023/07/24 10:59:05;;;;;;;0.10;0.10;;;;;;;20.84;71.82;96517.28;5113415;28;20119;-73
2023/07/24 11:01:33;;;;;;;0.03;0.03;;;;;;;20.87;73.42;96522.94;5108666;28;20045;-73
2023/07/24 11:04:03;;;;;;;0.10;0.10;;;;;;;20.73;72.76;96526.63;5111598;28;20054;-73
2023/07/24 11:06:30;;;;;;;0.00;0.00;;;;;;;20.76;73.19;96515.19;5103122;28;20048;-73
2023/07/24 11:09:00;;;;;;;0.10;0.10;;;;;;;20.68;73.67;96513.91;5110927;28;20051;-73
2023/07/24 11:11:31;;;;;;;0.10;0.10;;;;;;;20.51;74.36;96518.94;5105158;28;20065;-74
2023/07/24 11:14:04;;;;;;;0.03;0.03;;;;;;;20.36;74.59;96509.03;5111062;28;20100;-73
2023/07/24 11:16:33;;;;;;;0.00;0.00;;;;;;;20.33;74.49;96533.16;5118505;28;20513;-73
2023/07/24 11:19:01;;;;;;;0.10;0.10;;;;;;;20.39;75.59;96537.47;5113065;28;20120;-73
2023/07/24 11:21:29;;;;;;;0.00;0.00;;;;;;;20.49;75.30;96531.97;5111351;28;20048;-73
2023/07/24 11:23:59;;;;;;;0.10;0.10;;;;;;;20.56;74.80;96527.03;5113438;28;20051;-74
2023/07/24 11:26:27;;;;;;;0.00;0.00;;;;;;;20.62;74.72;96516.94;5108737;28;20034;-72
2023/07/24 11:28:55;;;;;;;0.00;0.00;;;;;;;20.70;74.82;96509.00;5115721;28;20480;-72
2023/07/24 11:31:23;;;;;;;0.10;0.10;;;;;;;20.81;73.53;96498.88;5116368;28;20500;-72
2023/07/24 11:33:53;;;;;;;0.03;0.03;;;;;;;20.96;74.04;96500.63;5116477;28;20108;-72
2023/07/24 11:36:21;;;;;;;0.10;0.10;;;;;;;21.09;73.17;96494.47;5116159;28;20552;-72
2023/07/24 11:38:49;;;;;;;0.08;0.08;;;;;;;21.20;71.23;96487.88;5115377;28;20043;-72
2023/07/24 11:41:18;;;;;;;0.08;0.08;;;;;;;21.29;72.28;96491.56;5116396;28;20118;-72